This is the latest recevied weather packets stored in our database for station/object KE8YTO. If no packets are shown the sender has not sent any weather packets the latest 10 day(s).
| Time | Temp. | Humidity | Pressure | Rain* | Wind** | Luminosity | Snow |
|---|---|---|---|---|---|---|---|
| 1777507823 | 7.22° C | 85% | 989.4 hPa | 0 mm | - | - | - |
| 1777504829 | 7.78° C | 85% | 989.2 hPa | 0 mm | - | - | - |
| 1777500032 | 8.33° C | 88% | 988.7 hPa | 0 mm | - | - | - |
| 1777496426 | 8.33° C | 88% | 988.4 hPa | 0.76 mm | - | - | - |
| 1777495831 | 8.33° C | 89% | 988.4 hPa | 0.76 mm | - | - | - |
| 1777494027 | 8.33° C | 88% | 988.3 hPa | 0.51 mm | - | - | - |
| 1777489825 | 8.33° C | 88% | 988.2 hPa | 0.25 mm | - | - | - |
| 1777488022 | 9.44° C | 88% | 988 hPa | 0.76 mm | - | - | - |
| 1777485624 | 9.44° C | 89% | 988.1 hPa | 2.03 mm | - | - | - |
| 1777480821 | 10.56° C | 82% | 988.5 hPa | 0.76 mm | - | - | - |
| 1777478417 | 11.11° C | 76% | 988.4 hPa | 0 mm | - | - | - |
| 1777477816 | 11.67° C | 75% | 988.4 hPa | 0 mm | - | - | - |
| 1777477221 | 11.67° C | 74% | 988.4 hPa | 0 mm | - | - | - |
| 1777475417 | 11.67° C | 72% | 988.5 hPa | 0 mm | - | - | - |
| 1777470025 | 10.56° C | 75% | 988.6 hPa | 0 mm | - | - | - |
| 1777468817 | 10° C | 75% | 988.9 hPa | 0 mm | - | - | - |
| 1777465864 | 10° C | 77% | 989.3 hPa | 0 mm | - | - | - |
| 1777464635 | 10° C | 79% | 989.6 hPa | 0 mm | - | - | - |
| 1777463425 | 10° C | 79% | 989.4 hPa | 0 mm | - | - | - |
| 1777455022 | 10.56° C | 80% | 988.7 hPa | 0 mm | - | - | - |
| 1777453831 | 10.56° C | 81% | 988.4 hPa | 0 mm | - | - | - |
| 1777450819 | 10° C | 84% | 988.5 hPa | 0 mm | - | - | - |
| 1777446016 | 10° C | 84% | 989.1 hPa | 0 mm | - | - | - |
| 1777444218 | 10° C | 86% | 988.9 hPa | 0 mm | - | - | - |
| 1777441820 | 9.44° C | 84% | 989.8 hPa | 0 mm | - | - | - |
* Rain latest hour (hover to see other rain measurements)
** Current wind speed in m/s (hover to see current wind gust speed)